sensor_id;sensor_type;location;lat;lon;timestamp;pressure;altitude;pressure_sealevel;temperature;humidity
18231;BME280;9240;49.966;21.994;2024-03-23T00:55:22;98385.06;;;8.38;68.88
18231;BME280;9240;49.966;21.994;2024-03-23T00:57:47;98384.00;;;8.41;68.82
18231;BME280;9240;49.966;21.994;2024-03-23T01:00:14;98375.16;;;8.43;69.04
18231;BME280;9240;49.966;21.994;2024-03-23T01:02:39;98375.75;;;8.47;68.94
18231;BME280;9240;49.966;21.994;2024-03-23T01:05:05;98365.16;;;8.50;68.44
18231;BME280;9240;49.966;21.994;2024-03-23T01:07:30;98359.84;;;8.52;68.46
18231;BME280;9240;49.966;21.994;2024-03-23T01:09:57;98363.00;;;8.55;68.63
18231;BME280;9240;49.966;21.994;2024-03-23T01:12:23;98364.66;;;8.56;68.53
18231;BME280;9240;49.966;21.994;2024-03-23T01:14:48;98356.78;;;8.58;68.66
18231;BME280;9240;49.966;21.994;2024-03-23T01:17:13;98361.81;;;8.59;68.48
18231;BME280;9240;49.966;21.994;2024-03-23T01:19:39;98354.75;;;8.61;68.50
18231;BME280;9240;49.966;21.994;2024-03-23T01:22:04;98357.22;;;8.63;68.42
18231;BME280;9240;49.966;21.994;2024-03-23T01:24:30;98353.56;;;8.65;68.52
18231;BME280;9240;49.966;21.994;2024-03-23T01:26:57;98352.63;;;8.67;68.62
18231;BME280;9240;49.966;21.994;2024-03-23T01:29:22;98355.09;;;8.68;68.33
18231;BME280;9240;49.966;21.994;2024-03-23T01:31:48;98354.97;;;8.70;68.59
18231;BME280;9240;49.966;21.994;2024-03-23T01:34:13;98345.41;;;8.70;68.54
18231;BME280;9240;49.966;21.994;2024-03-23T01:36:38;98343.53;;;8.72;68.53
18231;BME280;9240;49.966;21.994;2024-03-23T01:39:04;98339.13;;;8.73;68.41
18231;BME280;9240;49.966;21.994;2024-03-23T01:41:29;98333.94;;;8.73;68.36
18231;BME280;9240;49.966;21.994;2024-03-23T01:43:56;98327.81;;;8.74;68.54
18231;BME280;9240;49.966;21.994;2024-03-23T01:46:22;98323.47;;;8.74;68.44
18231;BME280;9240;49.966;21.994;2024-03-23T01:48:47;98326.88;;;8.75;68.40
18231;BME280;9240;49.966;21.994;2024-03-23T01:51:14;98330.16;;;8.77;68.30
18231;BME280;9240;49.966;21.994;2024-03-23T01:53:39;98329.22;;;8.78;67.89
18231;BME280;9240;49.966;21.994;2024-03-23T01:56:05;98317.09;;;8.78;68.34
18231;BME280;9240;49.966;21.994;2024-03-23T01:58:31;98310.09;;;8.79;68.07
18231;BME280;9240;49.966;21.994;2024-03-23T02:00:58;98305.75;;;8.79;68.15
18231;BME280;9240;49.966;21.994;2024-03-23T02:03:24;98311.75;;;8.80;68.03
18231;BME280;9240;49.966;21.994;2024-03-23T02:05:50;98300.44;;;8.81;68.21
18231;BME280;9240;49.966;21.994;2024-03-23T02:08:17;98309.03;;;8.81;68.08
18231;BME280;9240;49.966;21.994;2024-03-23T02:10:42;98305.47;;;8.83;67.73
18231;BME280;9240;49.966;21.994;2024-03-23T02:13:08;98295.94;;;8.83;68.03
18231;BME280;9240;49.966;21.994;2024-03-23T02:15:33;98297.69;;;8.83;67.87
18231;BME280;9240;49.966;21.994;2024-03-23T02:18:00;98297.59;;;8.84;67.83
18231;BME280;9240;49.966;21.994;2024-03-23T02:20:25;98295.00;;;8.84;67.96
18231;BME280;9240;49.966;21.994;2024-03-23T02:22:53;98288.72;;;8.87;68.17
18231;BME280;9240;49.966;21.994;2024-03-23T02:25:19;98296.50;;;8.87;67.58
18231;BME280;9240;49.966;21.994;2024-03-23T02:27:44;98290.38;;;8.88;67.62
18231;BME280;9240;49.966;21.994;2024-03-23T02:30:10;98285.97;;;8.88;67.51
18231;BME280;9240;49.966;21.994;2024-03-23T02:32:35;98279.03;;;8.89;68.03
18231;BME280;9240;49.966;21.994;2024-03-23T02:35:01;98280.78;;;8.88;67.77
18231;BME280;9240;49.966;21.994;2024-03-23T02:37:26;98278.09;;;8.90;67.86
18231;BME280;9240;49.966;21.994;2024-03-23T02:39:53;98280.69;;;8.90;67.74
18231;BME280;9240;49.966;21.994;2024-03-23T02:42:18;98276.31;;;8.90;67.85
18231;BME280;9240;49.966;21.994;2024-03-23T02:44:44;98263.31;;;8.90;67.81
18231;BME280;9240;49.966;21.994;2024-03-23T02:47:10;98256.38;;;8.91;67.90
18231;BME280;9240;49.966;21.994;2024-03-23T02:49:35;98258.13;;;8.90;67.80
18231;BME280;9240;49.966;21.994;2024-03-23T02:52:01;98256.38;;;8.91;67.86
18231;BME280;9240;49.966;21.994;2024-03-23T02:54:26;98260.63;;;8.92;67.62
18231;BME280;9240;49.966;21.994;2024-03-23T02:56:53;98259.66;;;8.93;67.79
18231;BME280;9240;49.966;21.994;2024-03-23T02:59:18;98257.19;;;8.91;67.77
18231;BME280;9240;49.966;21.994;2024-03-23T03:01:44;98263.22;;;8.92;67.61
18231;BME280;9240;49.966;21.994;2024-03-23T03:04:09;98260.63;;;8.92;67.83
18231;BME280;9240;49.966;21.994;2024-03-23T03:06:35;98256.22;;;8.92;67.66
18231;BME280;9240;49.966;21.994;2024-03-23T03:09:00;98258.81;;;8.92;67.93
18231;BME280;9240;49.966;21.994;2024-03-23T03:11:26;98251.88;;;8.93;67.82
18231;BME280;9240;49.966;21.994;2024-03-23T03:13:52;98256.13;;;8.94;67.68
18231;BME280;9240;49.966;21.994;2024-03-23T03:16:18;98252.69;;;8.93;67.74
18231;BME280;9240;49.966;21.994;2024-03-23T03:18:43;98247.50;;;8.93;67.45
18231;BME280;9240;49.966;21.994;2024-03-23T03:21:09;98244.09;;;8.93;67.92
18231;BME280;9240;49.966;21.994;2024-03-23T03:23:34;98240.66;;;8.92;67.86
18231;BME280;9240;49.966;21.994;2024-03-23T03:26:00;98243.94;;;8.94;67.69
18231;BME280;9240;49.966;21.994;2024-03-23T03:28:25;98243.25;;;8.92;67.83
18231;BME280;9240;49.966;21.994;2024-03-23T03:30:52;98244.91;;;8.93;67.57
18231;BME280;9240;49.966;21.994;2024-03-23T03:33:17;98238.75;;;8.94;68.00
18231;BME280;9240;49.966;21.994;2024-03-23T03:35:43;98240.41;;;8.95;68.03
18231;BME280;9240;49.966;21.994;2024-03-23T03:38:08;98243.00;;;8.95;67.99
18231;BME280;9240;49.966;21.994;2024-03-23T03:40:34;98235.22;;;8.95;67.82
18231;BME280;9240;49.966;21.994;2024-03-23T03:42:59;98231.66;;;8.96;67.56
18231;BME280;9240;49.966;21.994;2024-03-23T03:45:24;98236.72;;;8.98;67.71
18231;BME280;9240;49.966;21.994;2024-03-23T03:47:51;98228.94;;;8.98;67.57
18231;BME280;9240;49.966;21.994;2024-03-23T03:50:17;98238.50;;;8.98;67.54
18231;BME280;9240;49.966;21.994;2024-03-23T03:52:42;98233.31;;;8.98;67.57
18231;BME280;9240;49.966;21.994;2024-03-23T03:55:12;98235.91;;;8.98;67.54
18231;BME280;9240;49.966;21.994;2024-03-23T03:57:38;98226.47;;;8.96;67.63
18231;BME280;9240;49.966;21.994;2024-03-23T04:00:04;98231.53;;;8.98;67.77
18231;BME280;9240;49.966;21.994;2024-03-23T04:02:30;98229.88;;;8.97;67.49
18231;BME280;9240;49.966;21.994;2024-03-23T04:04:57;98230.72;;;8.98;67.47
18231;BME280;9240;49.966;21.994;2024-03-23T04:07:22;98228.00;;;8.99;67.56
18231;BME280;9240;49.966;21.994;2024-03-23T04:09:48;98227.19;;;8.99;67.41
18231;BME280;9240;49.966;21.994;2024-03-23T04:12:13;98226.34;;;8.98;67.60
18231;BME280;9240;49.966;21.994;2024-03-23T04:14:39;98227.19;;;8.99;67.40
18231;BME280;9240;49.966;21.994;2024-03-23T04:17:04;98221.97;;;8.99;67.43
18231;BME280;9240;49.966;21.994;2024-03-23T04:19:30;98215.84;;;9.00;67.74
18231;BME280;9240;49.966;21.994;2024-03-23T04:21:56;98218.44;;;9.00;67.44
18231;BME280;9240;49.966;21.994;2024-03-23T04:24:22;98211.59;;;8.99;67.61
18231;BME280;9240;49.966;21.994;2024-03-23T04:26:47;98216.66;;;9.00;67.19
18231;BME280;9240;49.966;21.994;2024-03-23T04:29:13;98217.50;;;9.01;67.38
18231;BME280;9240;49.966;21.994;2024-03-23T04:31:38;98215.84;;;9.00;67.52
18231;BME280;9240;49.966;21.994;2024-03-23T04:34:04;98224.44;;;9.00;67.51
18231;BME280;9240;49.966;21.994;2024-03-23T04:36:30;98213.25;;;9.00;67.62
18231;BME280;9240;49.966;21.994;2024-03-23T04:38:58;98211.34;;;9.02;67.70
18231;BME280;9240;49.966;21.994;2024-03-23T04:41:24;98203.56;;;9.02;67.34
18231;BME280;9240;49.966;21.994;2024-03-23T04:43:49;98194.81;;;9.03;67.73
18231;BME280;9240;49.966;21.994;2024-03-23T04:46:15;98197.28;;;9.04;67.56
18231;BME280;9240;49.966;21.994;2024-03-23T04:48:40;98189.47;;;9.04;67.30
18231;BME280;9240;49.966;21.994;2024-03-23T04:51:06;98189.47;;;9.04;67.71
18231;BME280;9240;49.966;21.994;2024-03-23T04:53:31;98179.78;;;9.06;67.70
18231;BME280;9240;49.966;21.994;2024-03-23T04:55:58;98182.25;;;9.08;67.38
18231;BME280;9240;49.966;21.994;2024-03-23T04:58:23;98185.53;;;9.10;67.36
18231;BME280;9240;49.966;21.994;2024-03-23T05:00:53;98173.25;;;9.12;67.38
18231;BME280;9240;49.966;21.994;2024-03-23T05:03:18;98171.22;;;9.16;67.34
18231;BME280;9240;49.966;21.994;2024-03-23T05:05:44;98171.22;;;9.16;67.28
18231;BME280;9240;49.966;21.994;2024-03-23T05:08:09;98161.41;;;9.19;67.11
18231;BME280;9240;49.966;21.994;2024-03-23T05:10:35;98162.22;;;9.20;66.98
18231;BME280;9240;49.966;21.994;2024-03-23T05:13:01;98171.66;;;9.21;67.02
18231;BME280;9240;49.966;21.994;2024-03-23T05:15:27;98151.72;;;9.21;67.19
18231;BME280;9240;49.966;21.994;2024-03-23T05:17:52;98162.78;;;9.23;66.93
18231;BME280;9240;49.966;21.994;2024-03-23T05:20:18;98157.47;;;9.25;67.02
18231;BME280;9240;49.966;21.994;2024-03-23T05:22:44;98165.13;;;9.26;66.73
18231;BME280;9240;49.966;21.994;2024-03-23T05:25:09;98165.00;;;9.28;66.81
18231;BME280;9240;49.966;21.994;2024-03-23T05:27:35;98171.00;;;9.29;66.67
18231;BME280;9240;49.966;21.994;2024-03-23T05:30:02;98162.28;;;9.30;66.92
18231;BME280;9240;49.966;21.994;2024-03-23T05:32:27;98167.31;;;9.31;66.88
18231;BME280;9240;49.966;21.994;2024-03-23T05:34:53;98167.06;;;9.34;66.94
18231;BME280;9240;49.966;21.994;2024-03-23T05:37:19;98167.66;;;9.38;66.93
18231;BME280;9240;49.966;21.994;2024-03-23T05:39:44;98167.25;;;9.43;66.66
18231;BME280;9240;49.966;21.994;2024-03-23T05:42:10;98165.22;;;9.46;66.88
18231;BME280;9240;49.966;21.994;2024-03-23T05:44:35;98163.31;;;9.48;66.57
18231;BME280;9240;49.966;21.994;2024-03-23T05:47:02;98168.25;;;9.51;66.29
18231;BME280;9240;49.966;21.994;2024-03-23T05:49:28;98155.25;;;9.51;66.33
18231;BME280;9240;49.966;21.994;2024-03-23T05:51:53;98153.47;;;9.52;66.18
18231;BME280;9240;49.966;21.994;2024-03-23T05:54:19;98155.94;;;9.53;66.34
18231;BME280;9240;49.966;21.994;2024-03-23T05:56:44;98156.63;;;9.55;66.14
18231;BME280;9240;49.966;21.994;2024-03-23T05:59:09;98154.44;;;9.61;66.15
18231;BME280;9240;49.966;21.994;2024-03-23T06:01:35;98158.56;;;9.63;66.20
18231;BME280;9240;49.966;21.994;2024-03-23T06:04:02;98152.97;;;9.68;66.34
18231;BME280;9240;49.966;21.994;2024-03-23T06:06:27;98163.91;;;9.71;66.12
18231;BME280;9240;49.966;21.994;2024-03-23T06:08:53;98164.34;;;9.77;65.94
18231;BME280;9240;49.966;21.994;2024-03-23T06:11:18;98166.41;;;9.83;65.88
18231;BME280;9240;49.966;21.994;2024-03-23T06:13:44;98173.69;;;9.89;65.99
18231;BME280;9240;49.966;21.994;2024-03-23T06:16:09;98168.91;;;9.94;65.89
18231;BME280;9240;49.966;21.994;2024-03-23T06:18:34;98158.34;;;9.96;65.82
18231;BME280;9240;49.966;21.994;2024-03-23T06:21:01;98148.78;;;9.96;65.56
18231;BME280;9240;49.966;21.994;2024-03-23T06:23:27;98133.72;;;10.00;65.40
18231;BME280;9240;49.966;21.994;2024-03-23T06:25:52;98128.38;;;10.01;65.48
18231;BME280;9240;49.966;21.994;2024-03-23T06:28:18;98143.03;;;10.02;65.35
18231;BME280;9240;49.966;21.994;2024-03-23T06:30:43;98148.81;;;10.06;65.30
18231;BME280;9240;49.966;21.994;2024-03-23T06:33:09;98144.00;;;10.11;65.34
18231;BME280;9240;49.966;21.994;2024-03-23T06:35:34;98144.16;;;10.20;65.26
18231;BME280;9240;49.966;21.994;2024-03-23T06:38:01;98134.03;;;10.26;65.19
18231;BME280;9240;49.966;21.994;2024-03-23T06:40:26;98138.81;;;10.31;65.10
18231;BME280;9240;49.966;21.994;2024-03-23T06:42:52;98136.88;;;10.33;65.11
18231;BME280;9240;49.966;21.994;2024-03-23T06:45:17;98121.97;;;10.35;65.04
18231;BME280;9240;49.966;21.994;2024-03-23T06:47:43;98125.97;;;10.39;64.98
18231;BME280;9240;49.966;21.994;2024-03-23T06:50:09;98131.97;;;10.40;64.76
18231;BME280;9240;49.966;21.994;2024-03-23T06:52:34;98131.88;;;10.41;64.82
18231;BME280;9240;49.966;21.994;2024-03-23T06:55:01;98130.06;;;10.42;64.56
18231;BME280;9240;49.966;21.994;2024-03-23T06:57:26;98116.78;;;10.45;64.57
18231;BME280;9240;49.966;21.994;2024-03-23T06:59:52;98123.38;;;10.49;64.55
18231;BME280;9240;49.966;21.994;2024-03-23T07:02:17;98118.00;;;10.51;64.38
18231;BME280;9240;49.966;21.994;2024-03-23T07:04:43;98118.41;;;10.56;64.42
18231;BME280;9240;49.966;21.994;2024-03-23T07:07:08;98122.25;;;10.61;64.31
18231;BME280;9240;49.966;21.994;2024-03-23T07:09:33;98127.56;;;10.70;64.19
18231;BME280;9240;49.966;21.994;2024-03-23T07:12:00;98121.94;;;10.74;64.00
18231;BME280;9240;49.966;21.994;2024-03-23T07:14:26;98116.31;;;10.79;63.85
18231;BME280;9240;49.966;21.994;2024-03-23T07:16:51;98114.66;;;10.88;63.76
18231;BME280;9240;49.966;21.994;2024-03-23T07:19:17;98109.94;;;11.01;63.52
18231;BME280;9240;49.966;21.994;2024-03-23T07:21:42;98111.63;;;11.20;63.23
18231;BME280;9240;49.966;21.994;2024-03-23T07:24:08;98105.31;;;11.51;62.99
18231;BME280;9240;49.966;21.994;2024-03-23T07:26:33;98096.66;;;11.78;62.25
18231;BME280;9240;49.966;21.994;2024-03-23T07:29:00;98092.81;;;12.01;61.70
18231;BME280;9240;49.966;21.994;2024-03-23T07:31:26;98079.19;;;12.07;61.35
18231;BME280;9240;49.966;21.994;2024-03-23T07:33:51;98075.81;;;12.14;61.63
18231;BME280;9240;49.966;21.994;2024-03-23T07:36:17;98093.25;;;12.14;61.32
18231;BME280;9240;49.966;21.994;2024-03-23T07:38:42;98087.75;;;12.17;61.13
18231;BME280;9240;49.966;21.994;2024-03-23T07:41:09;98099.06;;;12.26;60.86
18231;BME280;9240;49.966;21.994;2024-03-23T07:43:35;98090.19;;;12.37;60.57
18231;BME280;9240;49.966;21.994;2024-03-23T07:46:03;98074.59;;;12.45;60.06
18231;BME280;9240;49.966;21.994;2024-03-23T07:48:28;98075.47;;;12.54;60.05
18231;BME280;9240;49.966;21.994;2024-03-23T07:51:01;98074.03;;;12.59;59.64
18231;BME280;9240;49.966;21.994;2024-03-23T07:53:27;98066.88;;;12.62;59.52
18231;BME280;9240;49.966;21.994;2024-03-23T07:55:57;98074.53;;;12.63;59.37
18231;BME280;9240;49.966;21.994;2024-03-23T07:58:23;98081.91;;;12.68;59.00
18231;BME280;9240;49.966;21.994;2024-03-23T08:00:49;98066.59;;;12.73;58.84
18231;BME280;9240;49.966;21.994;2024-03-23T08:03:15;98082.97;;;12.83;58.66
18231;BME280;9240;49.966;21.994;2024-03-23T08:05:41;98083.03;;;12.92;58.58
18231;BME280;9240;49.966;21.994;2024-03-23T08:08:07;98076.19;;;12.99;58.49
18231;BME280;9240;49.966;21.994;2024-03-23T08:10:32;98075.28;;;13.08;58.30
18231;BME280;9240;49.966;21.994;2024-03-23T08:12:58;98085.41;;;13.11;58.02
18231;BME280;9240;49.966;21.994;2024-03-23T08:15:23;98090.47;;;13.13;57.72
18231;BME280;9240;49.966;21.994;2024-03-23T08:17:49;98096.38;;;13.15;57.74
18231;BME280;9240;49.966;21.994;2024-03-23T08:20:16;98061.06;;;13.11;58.12
18231;BME280;9240;49.966;21.994;2024-03-23T08:22:41;98050.91;;;12.99;57.95
18231;BME280;9240;49.966;21.994;2024-03-23T08:25:08;98038.75;;;12.90;57.79
18231;BME280;9240;49.966;21.994;2024-03-23T08:27:33;98041.19;;;12.83;57.88
18231;BME280;9240;49.966;21.994;2024-03-23T08:29:59;98029.88;;;12.74;57.71
18231;BME280;9240;49.966;21.994;2024-03-23T08:32:24;98007.84;;;12.77;57.57
18231;BME280;9240;49.966;21.994;2024-03-23T08:34:50;98002.81;;;12.84;57.29
18231;BME280;9240;49.966;21.994;2024-03-23T08:37:17;98004.47;;;12.93;56.99
18231;BME280;9240;49.966;21.994;2024-03-23T08:39:43;97988.84;;;13.01;56.58
18231;BME280;9240;49.966;21.994;2024-03-23T08:42:09;97985.13;;;13.12;56.23
18231;BME280;9240;49.966;21.994;2024-03-23T08:44:34;97985.84;;;13.31;55.96
18231;BME280;9240;49.966;21.994;2024-03-23T08:47:00;97986.22;;;13.53;55.50
18231;BME280;9240;49.966;21.994;2024-03-23T08:49:25;97994.06;;;13.69;55.31
18231;BME280;9240;49.966;21.994;2024-03-23T08:51:50;97973.31;;;13.84;54.92
18231;BME280;9240;49.966;21.994;2024-03-23T08:54:17;97972.50;;;14.00;54.49
18231;BME280;9240;49.966;21.994;2024-03-23T08:56:43;97975.09;;;14.08;54.14
18231;BME280;9240;49.966;21.994;2024-03-23T08:59:08;97961.69;;;14.11;54.06
18231;BME280;9240;49.966;21.994;2024-03-23T09:01:34;97961.50;;;14.13;53.79
18231;BME280;9240;49.966;21.994;2024-03-23T09:03:59;97970.50;;;14.19;53.57
18231;BME280;9240;49.966;21.994;2024-03-23T09:06:24;97982.94;;;14.25;53.55
18231;BME280;9240;49.966;21.994;2024-03-23T09:08:50;97973.44;;;14.32;53.60
18231;BME280;9240;49.966;21.994;2024-03-23T09:11:17;97982.25;;;14.39;53.26
18231;BME280;9240;49.966;21.994;2024-03-23T09:13:42;97978.66;;;14.40;53.06
18231;BME280;9240;49.966;21.994;2024-03-23T09:16:08;97971.13;;;14.37;52.91
18231;BME280;9240;49.966;21.994;2024-03-23T09:18:35;97970.00;;;14.32;52.98
18231;BME280;9240;49.966;21.994;2024-03-23T09:21:00;97961.19;;;14.16;53.25
18231;BME280;9240;49.966;21.994;2024-03-23T09:23:26;97956.31;;;13.96;53.43
18231;BME280;9240;49.966;21.994;2024-03-23T09:25:51;97972.16;;;13.87;53.69
18231;BME280;9240;49.966;21.994;2024-03-23T09:28:18;97971.69;;;13.83;53.86
18231;BME280;9240;49.966;21.994;2024-03-23T09:30:44;97966.13;;;13.86;54.01
18231;BME280;9240;49.966;21.994;2024-03-23T09:33:10;97967.91;;;13.94;53.87
18231;BME280;9240;49.966;21.994;2024-03-23T09:35:37;97973.00;;;14.04;53.77
18231;BME280;9240;49.966;21.994;2024-03-23T09:38:02;97965.94;;;14.13;53.71
18231;BME280;9240;49.966;21.994;2024-03-23T09:40:28;97952.34;;;14.17;53.58
18231;BME280;9240;49.966;21.994;2024-03-23T09:42:53;97958.56;;;14.24;53.53
18231;BME280;9240;49.966;21.994;2024-03-23T09:45:26;97952.31;;;14.34;53.57
18231;BME280;9240;49.966;21.994;2024-03-23T09:47:52;97948.06;;;14.41;53.32
18231;BME280;9240;49.966;21.994;2024-03-23T09:50:18;97945.06;;;14.44;53.28
18231;BME280;9240;49.966;21.994;2024-03-23T09:52:45;97937.72;;;14.48;53.28
18231;BME280;9240;49.966;21.994;2024-03-23T09:55:11;97931.31;;;14.50;53.35
18231;BME280;9240;49.966;21.994;2024-03-23T09:57:36;97931.97;;;14.52;53.26
18231;BME280;9240;49.966;21.994;2024-03-23T10:00:02;97927.91;;;14.50;53.33
18231;BME280;9240;49.966;21.994;2024-03-23T10:02:29;97930.84;;;14.47;53.03
18231;BME280;9240;49.966;21.994;2024-03-23T10:04:55;97924.47;;;14.41;52.70
18231;BME280;9240;49.966;21.994;2024-03-23T10:07:21;97934.47;;;14.37;52.52
18231;BME280;9240;49.966;21.994;2024-03-23T10:09:46;97929.53;;;14.42;52.52
18231;BME280;9240;49.966;21.994;2024-03-23T10:12:14;97923.28;;;14.52;52.52
18231;BME280;9240;49.966;21.994;2024-03-23T10:14:39;97922.75;;;14.65;52.56
18231;BME280;9240;49.966;21.994;2024-03-23T10:17:13;97906.16;;;14.81;52.31
18231;BME280;9240;49.966;21.994;2024-03-23T10:19:40;97895.91;;;15.02;52.05
18231;BME280;9240;49.966;21.994;2024-03-23T10:22:06;97887.31;;;15.09;51.64
18231;BME280;9240;49.966;21.994;2024-03-23T10:24:32;97887.78;;;15.12;51.46
18231;BME280;9240;49.966;21.994;2024-03-23T10:26:57;97888.16;;;15.09;51.55
18231;BME280;9240;49.966;21.994;2024-03-23T10:29:22;97884.56;;;15.10;51.45
18231;BME280;9240;49.966;21.994;2024-03-23T10:31:50;97881.75;;;15.12;51.27
18231;BME280;9240;49.966;21.994;2024-03-23T10:34:15;97878.59;;;15.16;51.21
18231;BME280;9240;49.966;21.994;2024-03-23T10:36:42;97877.44;;;15.19;50.83
18231;BME280;9240;49.966;21.994;2024-03-23T10:39:08;97855.94;;;15.24;50.68
18231;BME280;9240;49.966;21.994;2024-03-23T10:41:35;97851.09;;;15.36;50.49
18231;BME280;9240;49.966;21.994;2024-03-23T10:44:02;97844.06;;;15.51;49.98
18231;BME280;9240;49.966;21.994;2024-03-23T10:46:27;97842.34;;;15.58;49.94
18231;BME280;9240;49.966;21.994;2024-03-23T10:48:53;97831.84;;;15.58;49.76
18231;BME280;9240;49.966;21.994;2024-03-23T10:51:19;97851.84;;;15.59;49.85
18231;BME280;9240;49.966;21.994;2024-03-23T10:53:46;97833.13;;;15.62;49.98
18231;BME280;9240;49.966;21.994;2024-03-23T10:56:13;97833.50;;;15.59;49.75
18231;BME280;9240;49.966;21.994;2024-03-23T10:58:42;97845.16;;;15.57;49.80
18231;BME280;9240;49.966;21.994;2024-03-23T11:01:10;97840.97;;;15.47;49.65
18231;BME280;9240;49.966;21.994;2024-03-23T11:03:37;97840.88;;;15.41;49.68
18231;BME280;9240;49.966;21.994;2024-03-23T11:06:03;97826.13;;;15.40;49.72
18231;BME280;9240;49.966;21.994;2024-03-23T11:08:33;97829.72;;;15.39;49.73
18231;BME280;9240;49.966;21.994;2024-03-23T11:11:18;97818.34;;;15.46;49.62
18231;BME280;9240;49.966;21.994;2024-03-23T11:13:44;97817.94;;;15.58;49.70
18231;BME280;9240;49.966;21.994;2024-03-23T11:16:15;97814.06;;;15.69;49.67
18231;BME280;9240;49.966;21.994;2024-03-23T11:18:40;97798.41;;;15.75;49.56
18231;BME280;9240;49.966;21.994;2024-03-23T11:21:06;97797.59;;;15.75;49.27
18231;BME280;9240;49.966;21.994;2024-03-23T11:23:32;97797.06;;;15.80;49.02
18231;BME280;9240;49.966;21.994;2024-03-23T11:25:57;97799.69;;;15.80;49.17
18231;BME280;9240;49.966;21.994;2024-03-23T11:28:24;97799.69;;;15.95;49.19
18231;BME280;9240;49.966;21.994;2024-03-23T11:30:50;97791.91;;;16.01;49.07
18231;BME280;9240;49.966;21.994;2024-03-23T11:33:15;97777.34;;;16.14;49.05
18231;BME280;9240;49.966;21.994;2024-03-23T11:35:41;97776.41;;;16.21;48.87
18231;BME280;9240;49.966;21.994;2024-03-23T11:38:08;97774.88;;;16.27;48.68
18231;BME280;9240;49.966;21.994;2024-03-23T11:40:35;97765.34;;;16.26;48.56
18231;BME280;9240;49.966;21.994;2024-03-23T11:43:01;97779.28;;;16.27;48.60
18231;BME280;9240;49.966;21.994;2024-03-23T11:45:29;97765.16;;;16.28;48.28
18231;BME280;9240;49.966;21.994;2024-03-23T11:48:06;97757.47;;;16.26;48.30
18231;BME280;9240;49.966;21.994;2024-03-23T11:50:32;97773.88;;;16.28;48.14
18231;BME280;9240;49.966;21.994;2024-03-23T11:53:13;97758.28;;;16.27;48.12
18231;BME280;9240;49.966;21.994;2024-03-23T11:55:43;97758.28;;;16.27;48.39
18231;BME280;9240;49.966;21.994;2024-03-23T11:58:09;97753.22;;;16.25;48.13
18231;BME280;9240;49.966;21.994;2024-03-23T12:00:36;97745.72;;;16.22;48.53
18231;BME280;9240;49.966;21.994;2024-03-23T12:03:02;97735.47;;;16.27;48.46
18231;BME280;9240;49.966;21.994;2024-03-23T12:05:28;97735.63;;;16.26;48.15
18231;BME280;9240;49.966;21.994;2024-03-23T12:07:53;97728.03;;;16.31;47.97
18231;BME280;9240;49.966;21.994;2024-03-23T12:10:19;97721.16;;;16.30;47.74
18231;BME280;9240;49.966;21.994;2024-03-23T12:12:44;97722.97;;;16.29;47.98
18231;BME280;9240;49.966;21.994;2024-03-23T12:15:10;97714.09;;;16.30;47.83
18231;BME280;9240;49.966;21.994;2024-03-23T12:17:37;97696.88;;;16.28;47.67
18231;BME280;9240;49.966;21.994;2024-03-23T12:20:03;97691.38;;;16.22;47.59
18231;BME280;9240;49.966;21.994;2024-03-23T12:22:29;97692.28;;;16.15;47.61
18231;BME280;9240;49.966;21.994;2024-03-23T12:24:55;97693.22;;;16.07;47.71
18231;BME280;9240;49.966;21.994;2024-03-23T12:27:20;97692.44;;;15.91;48.05
18231;BME280;9240;49.966;21.994;2024-03-23T12:29:46;97686.38;;;15.76;48.10
18231;BME280;9240;49.966;21.994;2024-03-23T12:32:12;97687.13;;;15.70;48.55
18231;BME280;9240;49.966;21.994;2024-03-23T12:34:39;97677.00;;;15.67;48.67
18231;BME280;9240;49.966;21.994;2024-03-23T12:37:05;97672.28;;;15.62;48.51
18231;BME280;9240;49.966;21.994;2024-03-23T12:39:31;97663.50;;;15.55;48.76
18231;BME280;9240;49.966;21.994;2024-03-23T12:41:56;97656.38;;;15.48;48.93
18231;BME280;9240;49.966;21.994;2024-03-23T12:44:21;97658.09;;;15.41;49.07
18231;BME280;9240;49.966;21.994;2024-03-23T12:46:47;97658.81;;;15.35;49.20
18231;BME280;9240;49.966;21.994;2024-03-23T12:49:13;97654.28;;;15.29;49.37
18231;BME280;9240;49.966;21.994;2024-03-23T12:51:47;97645.44;;;15.30;49.56
18231;BME280;9240;49.966;21.994;2024-03-23T12:54:13;97642.00;;;15.29;49.46
18231;BME280;9240;49.966;21.994;2024-03-23T12:56:38;97630.53;;;15.30;49.57
18231;BME280;9240;49.966;21.994;2024-03-23T12:59:04;97630.16;;;15.33;49.63
18231;BME280;9240;49.966;21.994;2024-03-23T13:01:29;97629.34;;;15.33;49.96
18231;BME280;9240;49.966;21.994;2024-03-23T13:03:55;97616.97;;;15.27;50.11
18231;BME280;9240;49.966;21.994;2024-03-23T13:06:20;97613.72;;;15.25;50.07
18231;BME280;9240;49.966;21.994;2024-03-23T13:08:47;97607.19;;;15.21;50.10
18231;BME280;9240;49.966;21.994;2024-03-23T13:11:13;97611.63;;;15.20;50.33
18231;BME280;9240;49.966;21.994;2024-03-23T13:13:38;97596.72;;;15.21;50.32
18231;BME280;9240;49.966;21.994;2024-03-23T13:16:04;97607.63;;;15.24;50.48
18231;BME280;9240;49.966;21.994;2024-03-23T13:18:30;97597.97;;;15.25;50.53
18231;BME280;9240;49.966;21.994;2024-03-23T13:20:55;97594.53;;;15.24;50.54
18231;BME280;9240;49.966;21.994;2024-03-23T13:23:21;97577.38;;;15.22;50.68
18231;BME280;9240;49.966;21.994;2024-03-23T13:25:51;97570.94;;;15.24;50.84
18231;BME280;9240;49.966;21.994;2024-03-23T13:28:16;97563.06;;;15.24;50.79
18231;BME280;9240;49.966;21.994;2024-03-23T13:30:49;97563.91;;;15.25;50.98
18231;BME280;9240;49.966;21.994;2024-03-23T13:33:15;97558.81;;;15.23;51.00
18231;BME280;9240;49.966;21.994;2024-03-23T13:35:48;97562.44;;;15.22;51.06
18231;BME280;9240;49.966;21.994;2024-03-23T13:38:14;97559.28;;;15.27;51.10
18231;BME280;9240;49.966;21.994;2024-03-23T13:40:39;97558.72;;;15.31;51.19
18231;BME280;9240;49.966;21.994;2024-03-23T13:43:15;97544.25;;;15.36;51.04
18231;BME280;9240;49.966;21.994;2024-03-23T13:45:43;97539.25;;;15.41;51.08
18231;BME280;9240;49.966;21.994;2024-03-23T13:48:09;97533.84;;;15.42;51.02
18231;BME280;9240;49.966;21.994;2024-03-23T13:50:34;97530.66;;;15.47;51.10
18231;BME280;9240;49.966;21.994;2024-03-23T13:53:00;97519.59;;;15.52;51.14